sensor_id;sensor_type;location;lat;lon;timestamp;temperature;humidity
25640;DHT22;13497;48.322;16.204;2023-12-14T00:02:04;5.70;99.90
25640;DHT22;13497;48.322;16.204;2023-12-14T00:04:30;5.70;99.90
25640;DHT22;13497;48.322;16.204;2023-12-14T00:06:55;5.60;99.90
25640;DHT22;13497;48.322;16.204;2023-12-14T00:09:21;5.60;99.90
25640;DHT22;13497;48.322;16.204;2023-12-14T00:11:47;5.60;99.90
25640;DHT22;13497;48.322;16.204;2023-12-14T00:14:12;5.60;99.90
25640;DHT22;13497;48.322;16.204;2023-12-14T00:16:38;5.60;99.90
25640;DHT22;13497;48.322;16.204;2023-12-14T00:19:03;5.60;99.90
25640;DHT22;13497;48.322;16.204;2023-12-14T00:21:29;5.60;99.90
25640;DHT22;13497;48.322;16.204;2023-12-14T00:23:55;5.60;99.90
25640;DHT22;13497;48.322;16.204;2023-12-14T00:26:20;5.70;99.90
25640;DHT22;13497;48.322;16.204;2023-12-14T00:28:46;5.80;99.90
25640;DHT22;13497;48.322;16.204;2023-12-14T00:31:11;5.90;99.90
25640;DHT22;13497;48.322;16.204;2023-12-14T00:33:37;5.90;99.90
25640;DHT22;13497;48.322;16.204;2023-12-14T00:36:03;5.90;99.90
25640;DHT22;13497;48.322;16.204;2023-12-14T00:38:29;5.80;99.90
25640;DHT22;13497;48.322;16.204;2023-12-14T00:40:54;5.80;99.90
25640;DHT22;13497;48.322;16.204;2023-12-14T00:43:20;5.80;99.90
25640;DHT22;13497;48.322;16.204;2023-12-14T00:45:46;5.80;99.90
25640;DHT22;13497;48.322;16.204;2023-12-14T00:48:11;5.70;99.90
25640;DHT22;13497;48.322;16.204;2023-12-14T00:50:37;5.70;99.90
25640;DHT22;13497;48.322;16.204;2023-12-14T00:53:03;5.70;99.90
25640;DHT22;13497;48.322;16.204;2023-12-14T00:55:28;5.70;99.90
25640;DHT22;13497;48.322;16.204;2023-12-14T00:57:54;5.70;99.90
25640;DHT22;13497;48.322;16.204;2023-12-14T01:00:20;5.60;99.90
25640;DHT22;13497;48.322;16.204;2023-12-14T01:02:45;5.70;99.90
25640;DHT22;13497;48.322;16.204;2023-12-14T01:05:11;5.70;99.90
25640;DHT22;13497;48.322;16.204;2023-12-14T01:07:37;5.70;99.90
25640;DHT22;13497;48.322;16.204;2023-12-14T01:10:03;5.60;99.90
25640;DHT22;13497;48.322;16.204;2023-12-14T01:12:29;5.70;99.90
25640;DHT22;13497;48.322;16.204;2023-12-14T01:14:55;5.70;99.90
25640;DHT22;13497;48.322;16.204;2023-12-14T01:17:20;5.70;99.90
25640;DHT22;13497;48.322;16.204;2023-12-14T01:19:46;5.70;99.90
25640;DHT22;13497;48.322;16.204;2023-12-14T01:22:11;5.70;99.90
25640;DHT22;13497;48.322;16.204;2023-12-14T01:24:37;5.70;99.90
25640;DHT22;13497;48.322;16.204;2023-12-14T01:27:03;5.60;99.90
25640;DHT22;13497;48.322;16.204;2023-12-14T01:29:28;5.50;99.90
25640;DHT22;13497;48.322;16.204;2023-12-14T01:31:54;5.50;99.90
25640;DHT22;13497;48.322;16.204;2023-12-14T01:34:20;5.50;99.90
25640;DHT22;13497;48.322;16.204;2023-12-14T01:36:45;5.50;99.90
25640;DHT22;13497;48.322;16.204;2023-12-14T01:39:11;5.40;99.90
25640;DHT22;13497;48.322;16.204;2023-12-14T01:41:37;5.50;99.90
25640;DHT22;13497;48.322;16.204;2023-12-14T01:44:02;5.50;99.90
25640;DHT22;13497;48.322;16.204;2023-12-14T01:46:28;5.60;99.90
25640;DHT22;13497;48.322;16.204;2023-12-14T01:48:53;5.70;99.90
25640;DHT22;13497;48.322;16.204;2023-12-14T01:51:19;5.70;99.90
25640;DHT22;13497;48.322;16.204;2023-12-14T01:53:45;5.70;99.90
25640;DHT22;13497;48.322;16.204;2023-12-14T01:56:10;5.80;99.90
25640;DHT22;13497;48.322;16.204;2023-12-14T01:58:36;5.80;99.90
25640;DHT22;13497;48.322;16.204;2023-12-14T02:01:11;5.80;99.90
25640;DHT22;13497;48.322;16.204;2023-12-14T02:03:52;5.80;99.90
25640;DHT22;13497;48.322;16.204;2023-12-14T02:06:20;5.80;99.90
25640;DHT22;13497;48.322;16.204;2023-12-14T02:08:45;5.90;99.90
25640;DHT22;13497;48.322;16.204;2023-12-14T02:11:12;5.90;99.90
25640;DHT22;13497;48.322;16.204;2023-12-14T02:13:37;5.90;99.90
25640;DHT22;13497;48.322;16.204;2023-12-14T02:16:03;5.90;99.90
25640;DHT22;13497;48.322;16.204;2023-12-14T02:18:29;5.90;99.90
25640;DHT22;13497;48.322;16.204;2023-12-14T02:20:55;6.00;99.90
25640;DHT22;13497;48.322;16.204;2023-12-14T02:23:20;6.10;99.90
25640;DHT22;13497;48.322;16.204;2023-12-14T02:25:46;6.10;99.90
25640;DHT22;13497;48.322;16.204;2023-12-14T02:28:12;6.00;99.90
25640;DHT22;13497;48.322;16.204;2023-12-14T02:30:38;6.00;99.90
25640;DHT22;13497;48.322;16.204;2023-12-14T02:33:03;6.00;99.90
25640;DHT22;13497;48.322;16.204;2023-12-14T02:35:29;6.00;99.90
25640;DHT22;13497;48.322;16.204;2023-12-14T02:37:55;5.90;99.90
25640;DHT22;13497;48.322;16.204;2023-12-14T02:40:21;5.90;99.90
25640;DHT22;13497;48.322;16.204;2023-12-14T02:42:46;5.90;99.90
25640;DHT22;13497;48.322;16.204;2023-12-14T02:45:12;5.90;99.90
25640;DHT22;13497;48.322;16.204;2023-12-14T02:47:38;5.80;99.90
25640;DHT22;13497;48.322;16.204;2023-12-14T02:50:04;5.90;99.90
25640;DHT22;13497;48.322;16.204;2023-12-14T02:52:29;5.90;99.90
25640;DHT22;13497;48.322;16.204;2023-12-14T02:54:55;5.80;99.90
25640;DHT22;13497;48.322;16.204;2023-12-14T02:57:21;5.80;99.90
25640;DHT22;13497;48.322;16.204;2023-12-14T02:59:46;5.80;99.90
25640;DHT22;13497;48.322;16.204;2023-12-14T03:02:12;5.80;99.90
25640;DHT22;13497;48.322;16.204;2023-12-14T03:04:38;5.90;99.90
25640;DHT22;13497;48.322;16.204;2023-12-14T03:07:07;5.80;99.90
25640;DHT22;13497;48.322;16.204;2023-12-14T03:09:33;5.70;99.90
25640;DHT22;13497;48.322;16.204;2023-12-14T03:12:00;5.70;99.90
25640;DHT22;13497;48.322;16.204;2023-12-14T03:14:26;5.70;99.90
25640;DHT22;13497;48.322;16.204;2023-12-14T03:16:51;5.70;99.90
25640;DHT22;13497;48.322;16.204;2023-12-14T03:19:18;5.70;99.90
25640;DHT22;13497;48.322;16.204;2023-12-14T03:21:43;5.80;99.90
25640;DHT22;13497;48.322;16.204;2023-12-14T03:24:09;6.00;99.90
25640;DHT22;13497;48.322;16.204;2023-12-14T03:26:35;6.00;99.90
25640;DHT22;13497;48.322;16.204;2023-12-14T03:29:01;6.00;99.90
25640;DHT22;13497;48.322;16.204;2023-12-14T03:31:27;5.90;99.90
25640;DHT22;13497;48.322;16.204;2023-12-14T03:33:52;5.90;99.90
25640;DHT22;13497;48.322;16.204;2023-12-14T03:36:18;6.00;99.90
25640;DHT22;13497;48.322;16.204;2023-12-14T03:38:44;6.10;99.90
25640;DHT22;13497;48.322;16.204;2023-12-14T03:41:10;6.00;99.90
25640;DHT22;13497;48.322;16.204;2023-12-14T03:43:35;6.10;99.90
25640;DHT22;13497;48.322;16.204;2023-12-14T03:46:01;6.10;99.90
25640;DHT22;13497;48.322;16.204;2023-12-14T03:48:26;6.00;99.90
25640;DHT22;13497;48.322;16.204;2023-12-14T03:50:52;5.90;99.90
25640;DHT22;13497;48.322;16.204;2023-12-14T03:53:18;5.90;99.90
25640;DHT22;13497;48.322;16.204;2023-12-14T03:55:43;5.90;99.90
25640;DHT22;13497;48.322;16.204;2023-12-14T03:58:09;6.00;99.90
25640;DHT22;13497;48.322;16.204;2023-12-14T04:00:35;6.00;99.90
25640;DHT22;13497;48.322;16.204;2023-12-14T04:03:00;6.10;99.90
25640;DHT22;13497;48.322;16.204;2023-12-14T04:05:26;6.20;99.90
25640;DHT22;13497;48.322;16.204;2023-12-14T04:07:52;6.20;99.90
25640;DHT22;13497;48.322;16.204;2023-12-14T04:10:17;6.30;99.90
25640;DHT22;13497;48.322;16.204;2023-12-14T04:12:43;6.30;99.90
25640;DHT22;13497;48.322;16.204;2023-12-14T04:15:10;6.20;99.90
25640;DHT22;13497;48.322;16.204;2023-12-14T04:17:36;6.30;99.90
25640;DHT22;13497;48.322;16.204;2023-12-14T04:20:02;6.40;99.90
25640;DHT22;13497;48.322;16.204;2023-12-14T04:22:28;6.30;99.90
25640;DHT22;13497;48.322;16.204;2023-12-14T04:24:54;6.30;99.90
25640;DHT22;13497;48.322;16.204;2023-12-14T04:27:20;6.40;99.90
25640;DHT22;13497;48.322;16.204;2023-12-14T04:29:46;6.30;99.90
25640;DHT22;13497;48.322;16.204;2023-12-14T04:32:12;6.30;99.90
25640;DHT22;13497;48.322;16.204;2023-12-14T04:34:37;6.30;99.90
25640;DHT22;13497;48.322;16.204;2023-12-14T04:37:03;6.40;99.90
25640;DHT22;13497;48.322;16.204;2023-12-14T04:39:29;6.40;99.90
25640;DHT22;13497;48.322;16.204;2023-12-14T04:41:55;6.40;99.90
25640;DHT22;13497;48.322;16.204;2023-12-14T04:44:21;6.50;99.90
25640;DHT22;13497;48.322;16.204;2023-12-14T04:46:50;6.50;99.90
25640;DHT22;13497;48.322;16.204;2023-12-14T04:49:16;6.50;99.90
25640;DHT22;13497;48.322;16.204;2023-12-14T04:51:42;6.50;99.90
25640;DHT22;13497;48.322;16.204;2023-12-14T04:54:08;6.60;99.90
25640;DHT22;13497;48.322;16.204;2023-12-14T04:56:34;6.60;99.90
25640;DHT22;13497;48.322;16.204;2023-12-14T04:59:00;6.70;99.90
25640;DHT22;13497;48.322;16.204;2023-12-14T05:01:25;6.70;99.90
25640;DHT22;13497;48.322;16.204;2023-12-14T05:03:54;6.70;99.90
25640;DHT22;13497;48.322;16.204;2023-12-14T05:06:20;6.70;99.90
25640;DHT22;13497;48.322;16.204;2023-12-14T05:08:46;6.70;99.90
25640;DHT22;13497;48.322;16.204;2023-12-14T05:11:13;6.70;99.90
25640;DHT22;13497;48.322;16.204;2023-12-14T05:13:39;6.80;99.90
25640;DHT22;13497;48.322;16.204;2023-12-14T05:16:05;6.70;99.90
25640;DHT22;13497;48.322;16.204;2023-12-14T05:18:31;6.70;99.90
25640;DHT22;13497;48.322;16.204;2023-12-14T05:20:56;6.80;99.90
25640;DHT22;13497;48.322;16.204;2023-12-14T05:23:22;6.80;99.90
25640;DHT22;13497;48.322;16.204;2023-12-14T05:25:49;6.80;99.90
25640;DHT22;13497;48.322;16.204;2023-12-14T05:28:15;6.80;99.90
25640;DHT22;13497;48.322;16.204;2023-12-14T05:30:40;6.80;99.90
25640;DHT22;13497;48.322;16.204;2023-12-14T05:33:07;6.80;99.90
25640;DHT22;13497;48.322;16.204;2023-12-14T05:35:32;6.80;99.90
25640;DHT22;13497;48.322;16.204;2023-12-14T05:37:58;6.60;99.90
25640;DHT22;13497;48.322;16.204;2023-12-14T05:40:23;6.60;99.90
25640;DHT22;13497;48.322;16.204;2023-12-14T05:42:49;6.60;99.90
25640;DHT22;13497;48.322;16.204;2023-12-14T05:45:15;6.60;99.90
25640;DHT22;13497;48.322;16.204;2023-12-14T05:47:44;6.60;99.90
25640;DHT22;13497;48.322;16.204;2023-12-14T05:50:09;6.60;99.90
25640;DHT22;13497;48.322;16.204;2023-12-14T05:52:36;6.50;99.90
25640;DHT22;13497;48.322;16.204;2023-12-14T05:55:02;6.60;99.90
25640;DHT22;13497;48.322;16.204;2023-12-14T05:57:28;6.60;99.90
25640;DHT22;13497;48.322;16.204;2023-12-14T05:59:53;6.60;99.90
25640;DHT22;13497;48.322;16.204;2023-12-14T06:02:19;6.60;99.90
25640;DHT22;13497;48.322;16.204;2023-12-14T06:04:45;6.60;99.90
25640;DHT22;13497;48.322;16.204;2023-12-14T06:07:10;6.50;99.90
25640;DHT22;13497;48.322;16.204;2023-12-14T06:09:36;6.60;99.90
25640;DHT22;13497;48.322;16.204;2023-12-14T06:12:03;6.50;99.90
25640;DHT22;13497;48.322;16.204;2023-12-14T06:14:30;6.50;99.90
25640;DHT22;13497;48.322;16.204;2023-12-14T06:16:56;6.40;99.90
25640;DHT22;13497;48.322;16.204;2023-12-14T06:19:21;6.40;99.90
25640;DHT22;13497;48.322;16.204;2023-12-14T06:21:48;6.40;99.90
25640;DHT22;13497;48.322;16.204;2023-12-14T06:24:14;6.40;99.90
25640;DHT22;13497;48.322;16.204;2023-12-14T06:26:43;6.40;99.90
25640;DHT22;13497;48.322;16.204;2023-12-14T06:29:10;6.50;99.90
25640;DHT22;13497;48.322;16.204;2023-12-14T06:31:36;6.50;99.90
25640;DHT22;13497;48.322;16.204;2023-12-14T06:34:02;6.50;99.90
25640;DHT22;13497;48.322;16.204;2023-12-14T06:36:33;6.50;99.90
25640;DHT22;13497;48.322;16.204;2023-12-14T06:39:00;6.50;99.90
25640;DHT22;13497;48.322;16.204;2023-12-14T06:41:27;6.50;99.90
25640;DHT22;13497;48.322;16.204;2023-12-14T06:43:54;6.50;99.90
25640;DHT22;13497;48.322;16.204;2023-12-14T06:46:20;6.50;99.90
25640;DHT22;13497;48.322;16.204;2023-12-14T06:48:46;6.40;99.90
25640;DHT22;13497;48.322;16.204;2023-12-14T06:51:12;6.50;99.90
25640;DHT22;13497;48.322;16.204;2023-12-14T06:53:42;6.40;99.90
25640;DHT22;13497;48.322;16.204;2023-12-14T06:56:09;6.40;99.90
25640;DHT22;13497;48.322;16.204;2023-12-14T06:58:40;6.40;99.90
25640;DHT22;13497;48.322;16.204;2023-12-14T07:01:05;6.40;99.90
25640;DHT22;13497;48.322;16.204;2023-12-14T07:03:31;6.40;99.90
25640;DHT22;13497;48.322;16.204;2023-12-14T07:05:58;6.30;99.90
25640;DHT22;13497;48.322;16.204;2023-12-14T07:08:24;6.30;99.90
25640;DHT22;13497;48.322;16.204;2023-12-14T07:10:50;6.30;99.90
25640;DHT22;13497;48.322;16.204;2023-12-14T07:13:16;6.30;99.90
25640;DHT22;13497;48.322;16.204;2023-12-14T07:15:42;6.30;99.90
25640;DHT22;13497;48.322;16.204;2023-12-14T07:18:07;6.30;99.90
25640;DHT22;13497;48.322;16.204;2023-12-14T07:20:33;6.30;99.90
25640;DHT22;13497;48.322;16.204;2023-12-14T07:22:59;6.30;99.90
25640;DHT22;13497;48.322;16.204;2023-12-14T07:25:24;6.30;99.90
25640;DHT22;13497;48.322;16.204;2023-12-14T07:27:50;6.30;99.90
25640;DHT22;13497;48.322;16.204;2023-12-14T07:30:16;6.40;99.90
25640;DHT22;13497;48.322;16.204;2023-12-14T07:32:42;6.40;99.90
25640;DHT22;13497;48.322;16.204;2023-12-14T07:35:08;6.30;99.90
25640;DHT22;13497;48.322;16.204;2023-12-14T07:37:34;6.30;99.90
25640;DHT22;13497;48.322;16.204;2023-12-14T07:39:59;6.30;99.90
25640;DHT22;13497;48.322;16.204;2023-12-14T07:42:25;6.40;99.90
25640;DHT22;13497;48.322;16.204;2023-12-14T07:44:51;6.50;99.90
25640;DHT22;13497;48.322;16.204;2023-12-14T07:47:16;6.50;99.90
25640;DHT22;13497;48.322;16.204;2023-12-14T07:49:42;6.50;99.90
25640;DHT22;13497;48.322;16.204;2023-12-14T07:52:08;6.50;99.90
25640;DHT22;13497;48.322;16.204;2023-12-14T07:54:35;6.50;99.90
25640;DHT22;13497;48.322;16.204;2023-12-14T07:57:01;6.60;99.90
25640;DHT22;13497;48.322;16.204;2023-12-14T07:59:26;6.70;99.90
25640;DHT22;13497;48.322;16.204;2023-12-14T08:01:52;6.70;99.90
25640;DHT22;13497;48.322;16.204;2023-12-14T08:04:18;6.70;99.90
25640;DHT22;13497;48.322;16.204;2023-12-14T08:06:44;6.70;99.90
25640;DHT22;13497;48.322;16.204;2023-12-14T08:09:09;6.70;99.90
25640;DHT22;13497;48.322;16.204;2023-12-14T08:11:35;6.70;99.90
25640;DHT22;13497;48.322;16.204;2023-12-14T08:14:01;6.70;99.90
25640;DHT22;13497;48.322;16.204;2023-12-14T08:16:28;6.70;99.90
25640;DHT22;13497;48.322;16.204;2023-12-14T08:18:53;6.70;99.90
25640;DHT22;13497;48.322;16.204;2023-12-14T08:21:19;6.60;99.90
25640;DHT22;13497;48.322;16.204;2023-12-14T08:23:45;6.70;99.90
25640;DHT22;13497;48.322;16.204;2023-12-14T08:26:10;6.80;99.90
25640;DHT22;13497;48.322;16.204;2023-12-14T08:28:38;6.80;99.90
25640;DHT22;13497;48.322;16.204;2023-12-14T08:31:04;6.70;99.90
25640;DHT22;13497;48.322;16.204;2023-12-14T08:33:30;6.80;99.90
25640;DHT22;13497;48.322;16.204;2023-12-14T08:35:56;6.90;99.90
25640;DHT22;13497;48.322;16.204;2023-12-14T08:38:23;6.90;99.90
25640;DHT22;13497;48.322;16.204;2023-12-14T08:40:49;6.90;99.90
25640;DHT22;13497;48.322;16.204;2023-12-14T08:43:15;6.90;99.90
25640;DHT22;13497;48.322;16.204;2023-12-14T08:45:43;7.00;99.90
25640;DHT22;13497;48.322;16.204;2023-12-14T08:48:09;7.00;99.90
25640;DHT22;13497;48.322;16.204;2023-12-14T08:50:35;7.00;99.90
25640;DHT22;13497;48.322;16.204;2023-12-14T08:53:00;7.10;99.90
25640;DHT22;13497;48.322;16.204;2023-12-14T08:55:27;7.10;99.90
25640;DHT22;13497;48.322;16.204;2023-12-14T08:57:53;7.10;99.90
25640;DHT22;13497;48.322;16.204;2023-12-14T09:00:19;7.10;99.90
25640;DHT22;13497;48.322;16.204;2023-12-14T09:02:45;7.10;99.90
25640;DHT22;13497;48.322;16.204;2023-12-14T09:05:12;7.10;99.90
25640;DHT22;13497;48.322;16.204;2023-12-14T09:07:39;7.20;99.90
25640;DHT22;13497;48.322;16.204;2023-12-14T09:10:05;7.20;99.90
25640;DHT22;13497;48.322;16.204;2023-12-14T09:12:32;7.20;99.90
25640;DHT22;13497;48.322;16.204;2023-12-14T09:14:58;7.20;99.90
25640;DHT22;13497;48.322;16.204;2023-12-14T09:17:24;7.20;99.90
25640;DHT22;13497;48.322;16.204;2023-12-14T09:19:50;7.20;99.90
25640;DHT22;13497;48.322;16.204;2023-12-14T09:22:16;7.20;99.90
25640;DHT22;13497;48.322;16.204;2023-12-14T09:24:43;7.30;99.90
25640;DHT22;13497;48.322;16.204;2023-12-14T09:27:08;7.30;99.90
25640;DHT22;13497;48.322;16.204;2023-12-14T09:29:34;7.40;99.90
25640;DHT22;13497;48.322;16.204;2023-12-14T09:31:59;7.30;99.90
25640;DHT22;13497;48.322;16.204;2023-12-14T09:34:25;7.30;99.90
25640;DHT22;13497;48.322;16.204;2023-12-14T09:36:51;7.30;99.90
25640;DHT22;13497;48.322;16.204;2023-12-14T09:39:17;7.40;99.90
25640;DHT22;13497;48.322;16.204;2023-12-14T09:41:44;7.40;99.90
25640;DHT22;13497;48.322;16.204;2023-12-14T09:44:11;7.30;99.90
25640;DHT22;13497;48.322;16.204;2023-12-14T09:46:38;7.40;99.90
25640;DHT22;13497;48.322;16.204;2023-12-14T09:49:05;7.40;99.90
25640;DHT22;13497;48.322;16.204;2023-12-14T09:51:30;7.40;99.90
25640;DHT22;13497;48.322;16.204;2023-12-14T09:53:56;7.50;99.90
25640;DHT22;13497;48.322;16.204;2023-12-14T09:56:26;7.50;99.90
25640;DHT22;13497;48.322;16.204;2023-12-14T09:58:52;7.50;99.90
25640;DHT22;13497;48.322;16.204;2023-12-14T10:01:24;7.60;99.90
25640;DHT22;13497;48.322;16.204;2023-12-14T10:03:51;7.60;99.90
25640;DHT22;13497;48.322;16.204;2023-12-14T10:06:32;7.70;99.90
25640;DHT22;13497;48.322;16.204;2023-12-14T10:08:58;7.80;99.90
25640;DHT22;13497;48.322;16.204;2023-12-14T10:11:24;7.80;99.90
25640;DHT22;13497;48.322;16.204;2023-12-14T10:13:50;7.90;99.90
25640;DHT22;13497;48.322;16.204;2023-12-14T10:16:32;7.90;99.90
25640;DHT22;13497;48.322;16.204;2023-12-14T10:18:58;7.90;99.90
25640;DHT22;13497;48.322;16.204;2023-12-14T10:21:26;8.00;99.90
25640;DHT22;13497;48.322;16.204;2023-12-14T10:23:55;8.00;99.90
25640;DHT22;13497;48.322;16.204;2023-12-14T10:26:25;8.00;99.90
25640;DHT22;13497;48.322;16.204;2023-12-14T10:28:51;8.10;99.90
25640;DHT22;13497;48.322;16.204;2023-12-14T10:31:20;8.10;99.90
25640;DHT22;13497;48.322;16.204;2023-12-14T10:33:47;8.10;99.90
25640;DHT22;13497;48.322;16.204;2023-12-14T10:36:19;8.10;99.90
25640;DHT22;13497;48.322;16.204;2023-12-14T10:38:48;8.10;99.90
25640;DHT22;13497;48.322;16.204;2023-12-14T10:41:17;8.10;99.90
25640;DHT22;13497;48.322;16.204;2023-12-14T10:43:44;8.20;99.90
25640;DHT22;13497;48.322;16.204;2023-12-14T10:46:14;8.10;99.90
25640;DHT22;13497;48.322;16.204;2023-12-14T10:48:40;8.10;99.90
25640;DHT22;13497;48.322;16.204;2023-12-14T10:51:11;8.10;99.90
25640;DHT22;13497;48.322;16.204;2023-12-14T10:53:37;8.00;99.90
25640;DHT22;13497;48.322;16.204;2023-12-14T10:56:05;8.10;99.90
25640;DHT22;13497;48.322;16.204;2023-12-14T11:01:18;8.30;99.90
25640;DHT22;13497;48.322;16.204;2023-12-14T11:03:45;8.30;99.90
25640;DHT22;13497;48.322;16.204;2023-12-14T11:06:32;8.30;99.90
25640;DHT22;13497;48.322;16.204;2023-12-14T11:09:06;8.30;99.90
25640;DHT22;13497;48.322;16.204;2023-12-14T11:14:19;8.40;99.90
25640;DHT22;13497;48.322;16.204;2023-12-14T11:16:45;8.40;99.90
25640;DHT22;13497;48.322;16.204;2023-12-14T11:21:47;8.30;99.90
25640;DHT22;13497;48.322;16.204;2023-12-14T11:24:13;8.30;99.90
25640;DHT22;13497;48.322;16.204;2023-12-14T11:26:40;8.30;99.90
25640;DHT22;13497;48.322;16.204;2023-12-14T11:29:06;8.30;99.90
25640;DHT22;13497;48.322;16.204;2023-12-14T11:31:32;8.30;99.90
25640;DHT22;13497;48.322;16.204;2023-12-14T11:33:59;8.30;99.90
25640;DHT22;13497;48.322;16.204;2023-12-14T11:36:26;8.30;99.90
25640;DHT22;13497;48.322;16.204;2023-12-14T11:38:52;8.30;99.90
25640;DHT22;13497;48.322;16.204;2023-12-14T11:41:21;8.30;99.90
25640;DHT22;13497;48.322;16.204;2023-12-14T11:43:47;8.30;99.90
25640;DHT22;13497;48.322;16.204;2023-12-14T11:46:14;8.30;99.90
25640;DHT22;13497;48.322;16.204;2023-12-14T11:48:43;8.30;99.90
25640;DHT22;13497;48.322;16.204;2023-12-14T11:51:09;8.30;99.90
25640;DHT22;13497;48.322;16.204;2023-12-14T11:53:36;8.30;99.90
25640;DHT22;13497;48.322;16.204;2023-12-14T11:56:05;8.20;99.90
25640;DHT22;13497;48.322;16.204;2023-12-14T11:58:33;8.20;99.90
25640;DHT22;13497;48.322;16.204;2023-12-14T12:01:16;8.20;99.90
25640;DHT22;13497;48.322;16.204;2023-12-14T12:03:43;8.20;99.90
25640;DHT22;13497;48.322;16.204;2023-12-14T12:06:22;8.30;99.90
25640;DHT22;13497;48.322;16.204;2023-12-14T12:08:48;8.30;99.90
25640;DHT22;13497;48.322;16.204;2023-12-14T12:11:21;8.30;99.90
25640;DHT22;13497;48.322;16.204;2023-12-14T12:13:57;8.30;99.90
25640;DHT22;13497;48.322;16.204;2023-12-14T12:16:23;8.40;99.90
25640;DHT22;13497;48.322;16.204;2023-12-14T12:18:51;8.40;99.90
25640;DHT22;13497;48.322;16.204;2023-12-14T12:21:17;8.40;99.90
25640;DHT22;13497;48.322;16.204;2023-12-14T12:23:43;8.40;99.90
25640;DHT22;13497;48.322;16.204;2023-12-14T12:26:08;8.40;99.90
25640;DHT22;13497;48.322;16.204;2023-12-14T12:28:34;8.50;99.90
25640;DHT22;13497;48.322;16.204;2023-12-14T12:31:00;8.50;99.90
25640;DHT22;13497;48.322;16.204;2023-12-14T12:33:26;8.60;99.90
25640;DHT22;13497;48.322;16.204;2023-12-14T12:35:52;8.50;99.90
25640;DHT22;13497;48.322;16.204;2023-12-14T12:38:18;8.50;99.90
25640;DHT22;13497;48.322;16.204;2023-12-14T12:40:44;8.40;99.90
25640;DHT22;13497;48.322;16.204;2023-12-14T12:43:10;8.40;99.90
25640;DHT22;13497;48.322;16.204;2023-12-14T12:45:36;8.50;99.90
25640;DHT22;13497;48.322;16.204;2023-12-14T12:48:03;8.50;99.90
25640;DHT22;13497;48.322;16.204;2023-12-14T12:50:31;8.40;99.90
25640;DHT22;13497;48.322;16.204;2023-12-14T12:52:57;8.40;99.90
25640;DHT22;13497;48.322;16.204;2023-12-14T12:55:22;8.40;99.90
25640;DHT22;13497;48.322;16.204;2023-12-14T12:57:49;8.40;99.90
25640;DHT22;13497;48.322;16.204;2023-12-14T13:00:15;8.40;99.90
25640;DHT22;13497;48.322;16.204;2023-12-14T13:02:42;8.40;99.90
25640;DHT22;13497;48.322;16.204;2023-12-14T13:05:08;8.40;99.90
25640;DHT22;13497;48.322;16.204;2023-12-14T13:07:34;8.30;99.90
25640;DHT22;13497;48.322;16.204;2023-12-14T13:09:59;8.30;99.90
25640;DHT22;13497;48.322;16.204;2023-12-14T13:12:25;8.30;99.90
25640;DHT22;13497;48.322;16.204;2023-12-14T13:14:51;8.30;99.90
25640;DHT22;13497;48.322;16.204;2023-12-14T13:17:17;8.20;99.90
25640;DHT22;13497;48.322;16.204;2023-12-14T13:19:44;8.20;99.90
25640;DHT22;13497;48.322;16.204;2023-12-14T13:22:10;8.10;99.90
25640;DHT22;13497;48.322;16.204;2023-12-14T13:24:39;8.10;99.90
25640;DHT22;13497;48.322;16.204;2023-12-14T13:27:05;8.10;99.90
25640;DHT22;13497;48.322;16.204;2023-12-14T13:29:31;8.10;99.90
25640;DHT22;13497;48.322;16.204;2023-12-14T13:31:58;8.00;99.90
25640;DHT22;13497;48.322;16.204;2023-12-14T13:34:27;8.00;99.90
25640;DHT22;13497;48.322;16.204;2023-12-14T13:36:59;8.00;99.90
25640;DHT22;13497;48.322;16.204;2023-12-14T13:39:26;8.10;99.90
25640;DHT22;13497;48.322;16.204;2023-12-14T13:41:52;8.00;99.90
25640;DHT22;13497;48.322;16.204;2023-12-14T13:44:18;8.00;99.90
25640;DHT22;13497;48.322;16.204;2023-12-14T13:46:44;7.90;99.90
25640;DHT22;13497;48.322;16.204;2023-12-14T13:49:09;7.80;99.90
25640;DHT22;13497;48.322;16.204;2023-12-14T13:51:38;7.80;99.90
25640;DHT22;13497;48.322;16.204;2023-12-14T13:54:04;7.70;99.90
25640;DHT22;13497;48.322;16.204;2023-12-14T13:56:29;7.70;99.90
25640;DHT22;13497;48.322;16.204;2023-12-14T13:58:55;7.70;99.90
25640;DHT22;13497;48.322;16.204;2023-12-14T14:01:21;7.70;99.90
25640;DHT22;13497;48.322;16.204;2023-12-14T14:03:46;7.70;99.90
25640;DHT22;13497;48.322;16.204;2023-12-14T14:06:13;7.60;99.90
25640;DHT22;13497;48.322;16.204;2023-12-14T14:08:39;7.60;99.90
25640;DHT22;13497;48.322;16.204;2023-12-14T14:11:05;7.60;99.90
25640;DHT22;13497;48.322;16.204;2023-12-14T14:13:31;7.60;99.90
25640;DHT22;13497;48.322;16.204;2023-12-14T14:15:57;7.60;99.90
25640;DHT22;13497;48.322;16.204;2023-12-14T14:18:23;7.60;99.90
25640;DHT22;13497;48.322;16.204;2023-12-14T14:20:48;7.60;99.90
25640;DHT22;13497;48.322;16.204;2023-12-14T14:23:14;7.60;99.90
25640;DHT22;13497;48.322;16.204;2023-12-14T14:25:40;7.60;99.90
25640;DHT22;13497;48.322;16.204;2023-12-14T14:28:06;7.50;99.90
25640;DHT22;13497;48.322;16.204;2023-12-14T14:30:32;7.60;99.90
25640;DHT22;13497;48.322;16.204;2023-12-14T14:32:57;7.50;99.90
25640;DHT22;13497;48.322;16.204;2023-12-14T14:35:23;7.50;99.90
25640;DHT22;13497;48.322;16.204;2023-12-14T14:37:49;7.60;99.90
25640;DHT22;13497;48.322;16.204;2023-12-14T14:40:15;7.50;99.90
25640;DHT22;13497;48.322;16.204;2023-12-14T14:42:42;7.50;99.90
25640;DHT22;13497;48.322;16.204;2023-12-14T14:45:08;7.50;99.90
25640;DHT22;13497;48.322;16.204;2023-12-14T14:47:34;7.40;99.90
25640;DHT22;13497;48.322;16.204;2023-12-14T14:50:01;7.40;99.90
25640;DHT22;13497;48.322;16.204;2023-12-14T14:52:30;7.50;99.90
25640;DHT22;13497;48.322;16.204;2023-12-14T14:54:56;7.40;99.90
25640;DHT22;13497;48.322;16.204;2023-12-14T14:57:21;7.40;99.90
25640;DHT22;13497;48.322;16.204;2023-12-14T14:59:47;7.40;99.90
25640;DHT22;13497;48.322;16.204;2023-12-14T15:02:13;7.40;99.90
25640;DHT22;13497;48.322;16.204;2023-12-14T15:04:39;7.40;99.90
25640;DHT22;13497;48.322;16.204;2023-12-14T15:07:04;7.30;99.90
25640;DHT22;13497;48.322;16.204;2023-12-14T15:09:30;7.40;99.90
25640;DHT22;13497;48.322;16.204;2023-12-14T15:11:56;7.30;99.90
25640;DHT22;13497;48.322;16.204;2023-12-14T15:14:21;7.20;99.90
25640;DHT22;13497;48.322;16.204;2023-12-14T15:16:47;7.30;99.90
25640;DHT22;13497;48.322;16.204;2023-12-14T15:19:13;7.30;99.90
25640;DHT22;13497;48.322;16.204;2023-12-14T15:21:39;7.30;99.90
25640;DHT22;13497;48.322;16.204;2023-12-14T15:24:05;7.40;99.90
25640;DHT22;13497;48.322;16.204;2023-12-14T15:26:31;7.40;99.90
25640;DHT22;13497;48.322;16.204;2023-12-14T15:28:58;7.40;99.90
25640;DHT22;13497;48.322;16.204;2023-12-14T15:31:24;7.40;99.90
25640;DHT22;13497;48.322;16.204;2023-12-14T15:33:50;7.40;99.90